sensor_id;sensor_type;location;lat;lon;timestamp;temperature;humidity
5842;DHT22;2947;52.276;9.946;2023-03-12T00:00:44;0.40;1.00
5842;DHT22;2947;52.276;9.946;2023-03-12T00:03:10;0.30;1.00
5842;DHT22;2947;52.276;9.946;2023-03-12T00:05:37;-0.50;1.00
5842;DHT22;2947;52.276;9.946;2023-03-12T00:08:04;0.30;1.00
5842;DHT22;2947;52.276;9.946;2023-03-12T00:10:30;0.30;1.00
5842;DHT22;2947;52.276;9.946;2023-03-12T00:12:55;0.30;1.00
5842;DHT22;2947;52.276;9.946;2023-03-12T00:15:21;0.30;99.90
5842;DHT22;2947;52.276;9.946;2023-03-12T00:17:47;0.20;99.90
5842;DHT22;2947;52.276;9.946;2023-03-12T00:20:14;0.20;99.90
5842;DHT22;2947;52.276;9.946;2023-03-12T00:22:40;0.20;99.90
5842;DHT22;2947;52.276;9.946;2023-03-12T00:25:09;0.20;99.90
5842;DHT22;2947;52.276;9.946;2023-03-12T00:27:36;0.20;99.90
5842;DHT22;2947;52.276;9.946;2023-03-12T00:30:03;0.20;1.00
5842;DHT22;2947;52.276;9.946;2023-03-12T00:32:31;0.20;1.00
5842;DHT22;2947;52.276;9.946;2023-03-12T00:34:57;0.20;1.00
5842;DHT22;2947;52.276;9.946;2023-03-12T00:37:23;0.20;1.00
5842;DHT22;2947;52.276;9.946;2023-03-12T00:39:49;0.20;1.00
5842;DHT22;2947;52.276;9.946;2023-03-12T00:42:15;0.20;1.00
5842;DHT22;2947;52.276;9.946;2023-03-12T00:44:41;0.20;59.10
5842;DHT22;2947;52.276;9.946;2023-03-12T00:47:09;0.20;99.90
5842;DHT22;2947;52.276;9.946;2023-03-12T00:49:35;0.20;1.00
5842;DHT22;2947;52.276;9.946;2023-03-12T00:52:01;0.20;1.00
5842;DHT22;2947;52.276;9.946;2023-03-12T00:54:27;0.20;99.90
5842;DHT22;2947;52.276;9.946;2023-03-12T00:56:53;0.20;99.90
5842;DHT22;2947;52.276;9.946;2023-03-12T00:59:18;0.20;1.00
5842;DHT22;2947;52.276;9.946;2023-03-12T01:01:44;0.20;1.00
5842;DHT22;2947;52.276;9.946;2023-03-12T01:04:10;0.10;1.00
5842;DHT22;2947;52.276;9.946;2023-03-12T01:06:36;0.10;99.90
5842;DHT22;2947;52.276;9.946;2023-03-12T01:09:04;0.10;1.00
5842;DHT22;2947;52.276;9.946;2023-03-12T01:11:31;0.40;1.00
5842;DHT22;2947;52.276;9.946;2023-03-12T01:13:59;0.00;1.00
5842;DHT22;2947;52.276;9.946;2023-03-12T01:16:28;-0.10;99.90
5842;DHT22;2947;52.276;9.946;2023-03-12T01:18:55;-0.20;1.00
5842;DHT22;2947;52.276;9.946;2023-03-12T01:21:22;1.00;1.00
5842;DHT22;2947;52.276;9.946;2023-03-12T01:23:49;-0.10;1.00
5842;DHT22;2947;52.276;9.946;2023-03-12T01:26:15;-0.20;34.60
5842;DHT22;2947;52.276;9.946;2023-03-12T01:28:41;0.40;59.10
5842;DHT22;2947;52.276;9.946;2023-03-12T01:31:14;-0.20;1.00
5842;DHT22;2947;52.276;9.946;2023-03-12T01:33:42;-0.20;1.00
5842;DHT22;2947;52.276;9.946;2023-03-12T01:36:20;-0.30;1.00
5842;DHT22;2947;52.276;9.946;2023-03-12T01:38:55;-0.30;1.00
5842;DHT22;2947;52.276;9.946;2023-03-12T01:41:23;-0.30;1.00
5842;DHT22;2947;52.276;9.946;2023-03-12T01:43:50;-0.30;1.00
5842;DHT22;2947;52.276;9.946;2023-03-12T01:49:06;-0.30;99.90
5842;DHT22;2947;52.276;9.946;2023-03-12T01:51:38;-0.20;99.90
5842;DHT22;2947;52.276;9.946;2023-03-12T01:54:10;-0.20;99.90
5842;DHT22;2947;52.276;9.946;2023-03-12T01:56:40;-0.20;71.40
5842;DHT22;2947;52.276;9.946;2023-03-12T01:59:14;-0.20;47.80
5842;DHT22;2947;52.276;9.946;2023-03-12T02:01:43;-0.20;1.00
5842;DHT22;2947;52.276;9.946;2023-03-12T02:04:10;-0.20;1.00
5842;DHT22;2947;52.276;9.946;2023-03-12T02:06:44;-0.20;99.90
5842;DHT22;2947;52.276;9.946;2023-03-12T02:09:14;-0.20;40.00
5842;DHT22;2947;52.276;9.946;2023-03-12T02:11:43;-0.20;1.00
5842;DHT22;2947;52.276;9.946;2023-03-12T02:14:09;-0.20;29.40
5842;DHT22;2947;52.276;9.946;2023-03-12T02:16:35;-0.10;1.00
5842;DHT22;2947;52.276;9.946;2023-03-12T02:19:01;0.60;1.00
5842;DHT22;2947;52.276;9.946;2023-03-12T02:21:30;-0.20;1.00
5842;DHT22;2947;52.276;9.946;2023-03-12T02:24:11;-0.20;99.90
5842;DHT22;2947;52.276;9.946;2023-03-12T02:26:46;-0.20;1.00
5842;DHT22;2947;52.276;9.946;2023-03-12T02:29:14;-0.20;99.90
5842;DHT22;2947;52.276;9.946;2023-03-12T02:31:48;-0.20;1.00
5842;DHT22;2947;52.276;9.946;2023-03-12T02:34:15;-0.20;1.00
5842;DHT22;2947;52.276;9.946;2023-03-12T02:36:41;-0.20;99.90
5842;DHT22;2947;52.276;9.946;2023-03-12T02:39:08;-0.30;99.90
5842;DHT22;2947;52.276;9.946;2023-03-12T02:41:50;-0.30;1.00
5842;DHT22;2947;52.276;9.946;2023-03-12T02:44:21;0.00;1.00
5842;DHT22;2947;52.276;9.946;2023-03-12T02:46:53;-0.20;1.00
5842;DHT22;2947;52.276;9.946;2023-03-12T02:49:22;-0.30;1.00
5842;DHT22;2947;52.276;9.946;2023-03-12T02:51:49;-0.30;1.00
5842;DHT22;2947;52.276;9.946;2023-03-12T02:54:17;-0.30;1.00
5842;DHT22;2947;52.276;9.946;2023-03-12T02:56:43;-0.30;1.00
5842;DHT22;2947;52.276;9.946;2023-03-12T02:59:10;-0.30;99.90
5842;DHT22;2947;52.276;9.946;2023-03-12T03:01:37;-0.30;99.90
5842;DHT22;2947;52.276;9.946;2023-03-12T03:04:05;-0.30;1.00
5842;DHT22;2947;52.276;9.946;2023-03-12T03:06:33;-0.30;82.20
5842;DHT22;2947;52.276;9.946;2023-03-12T03:09:00;0.40;1.00
5842;DHT22;2947;52.276;9.946;2023-03-12T03:11:26;-0.30;1.00
5842;DHT22;2947;52.276;9.946;2023-03-12T03:13:53;-0.30;99.90
5842;DHT22;2947;52.276;9.946;2023-03-12T03:16:19;-0.40;1.00
5842;DHT22;2947;52.276;9.946;2023-03-12T03:18:45;-0.40;99.90
5842;DHT22;2947;52.276;9.946;2023-03-12T03:21:12;-0.40;1.00
5842;DHT22;2947;52.276;9.946;2023-03-12T03:23:42;-0.40;97.20
5842;DHT22;2947;52.276;9.946;2023-03-12T03:26:08;-0.50;99.90
5842;DHT22;2947;52.276;9.946;2023-03-12T03:28:34;-0.50;99.90
5842;DHT22;2947;52.276;9.946;2023-03-12T03:31:00;-0.50;99.90
5842;DHT22;2947;52.276;9.946;2023-03-12T03:33:32;-0.50;99.90
5842;DHT22;2947;52.276;9.946;2023-03-12T03:35:59;-0.50;1.00
5842;DHT22;2947;52.276;9.946;2023-03-12T03:38:27;-0.50;1.00
5842;DHT22;2947;52.276;9.946;2023-03-12T03:40:54;-0.20;1.00
5842;DHT22;2947;52.276;9.946;2023-03-12T03:43:20;-0.60;1.00
5842;DHT22;2947;52.276;9.946;2023-03-12T03:45:47;-0.60;1.00
5842;DHT22;2947;52.276;9.946;2023-03-12T03:48:13;-0.60;1.00
5842;DHT22;2947;52.276;9.946;2023-03-12T03:50:40;-0.60;1.00
5842;DHT22;2947;52.276;9.946;2023-03-12T03:53:07;-0.60;99.90
5842;DHT22;2947;52.276;9.946;2023-03-12T03:55:38;-0.60;99.90
5842;DHT22;2947;52.276;9.946;2023-03-12T03:58:04;0.20;99.90
5842;DHT22;2947;52.276;9.946;2023-03-12T04:00:30;-0.50;99.90
5842;DHT22;2947;52.276;9.946;2023-03-12T04:02:56;-0.50;3.50
5842;DHT22;2947;52.276;9.946;2023-03-12T04:05:22;-0.50;1.00
5842;DHT22;2947;52.276;9.946;2023-03-12T04:07:51;-0.50;1.00
5842;DHT22;2947;52.276;9.946;2023-03-12T04:10:22;-0.50;1.00
5842;DHT22;2947;52.276;9.946;2023-03-12T04:12:50;-0.50;1.00
5842;DHT22;2947;52.276;9.946;2023-03-12T04:15:16;-0.60;1.00
5842;DHT22;2947;52.276;9.946;2023-03-12T04:17:42;-0.60;99.90
5842;DHT22;2947;52.276;9.946;2023-03-12T04:20:08;0.20;1.00
5842;DHT22;2947;52.276;9.946;2023-03-12T04:22:36;-0.70;99.90
5842;DHT22;2947;52.276;9.946;2023-03-12T04:25:02;-0.70;99.90
5842;DHT22;2947;52.276;9.946;2023-03-12T04:27:28;-0.70;99.90
5842;DHT22;2947;52.276;9.946;2023-03-12T04:29:54;-0.80;99.90
5842;DHT22;2947;52.276;9.946;2023-03-12T04:32:20;-0.80;99.90
5842;DHT22;2947;52.276;9.946;2023-03-12T04:34:46;-0.20;99.90
5842;DHT22;2947;52.276;9.946;2023-03-12T04:37:12;-0.90;99.90
5842;DHT22;2947;52.276;9.946;2023-03-12T04:39:39;-0.90;99.90
5842;DHT22;2947;52.276;9.946;2023-03-12T04:42:05;-0.90;99.90
5842;DHT22;2947;52.276;9.946;2023-03-12T04:44:31;-0.90;99.90
5842;DHT22;2947;52.276;9.946;2023-03-12T04:46:57;-0.90;99.90
5842;DHT22;2947;52.276;9.946;2023-03-12T04:49:23;-0.90;99.90
5842;DHT22;2947;52.276;9.946;2023-03-12T04:51:48;-0.90;99.90
5842;DHT22;2947;52.276;9.946;2023-03-12T04:54:14;-0.90;99.90
5842;DHT22;2947;52.276;9.946;2023-03-12T04:56:40;-0.90;99.90
5842;DHT22;2947;52.276;9.946;2023-03-12T04:59:06;-0.90;99.90
5842;DHT22;2947;52.276;9.946;2023-03-12T05:01:33;-0.90;99.90
5842;DHT22;2947;52.276;9.946;2023-03-12T05:04:00;-0.30;99.90
5842;DHT22;2947;52.276;9.946;2023-03-12T05:06:27;-0.80;99.90
5842;DHT22;2947;52.276;9.946;2023-03-12T05:08:53;-0.80;99.90
5842;DHT22;2947;52.276;9.946;2023-03-12T05:11:19;-0.80;99.90
5842;DHT22;2947;52.276;9.946;2023-03-12T05:13:45;-0.80;99.90
5842;DHT22;2947;52.276;9.946;2023-03-12T05:16:13;-0.80;99.90
5842;DHT22;2947;52.276;9.946;2023-03-12T05:18:40;-0.80;99.90
5842;DHT22;2947;52.276;9.946;2023-03-12T05:21:19;-0.70;99.90
5842;DHT22;2947;52.276;9.946;2023-03-12T05:23:46;-0.80;99.90
5842;DHT22;2947;52.276;9.946;2023-03-12T05:26:30;-0.80;99.90
5842;DHT22;2947;52.276;9.946;2023-03-12T05:28:58;-0.80;99.90
5842;DHT22;2947;52.276;9.946;2023-03-12T05:31:24;-0.80;99.90
5842;DHT22;2947;52.276;9.946;2023-03-12T05:33:51;-0.90;99.90
5842;DHT22;2947;52.276;9.946;2023-03-12T05:36:18;-0.90;99.90
5842;DHT22;2947;52.276;9.946;2023-03-12T05:38:44;-0.80;99.90
5842;DHT22;2947;52.276;9.946;2023-03-12T05:41:19;-0.80;99.90
5842;DHT22;2947;52.276;9.946;2023-03-12T05:43:47;-0.20;99.90
5842;DHT22;2947;52.276;9.946;2023-03-12T05:46:13;-0.80;99.90
5842;DHT22;2947;52.276;9.946;2023-03-12T05:48:39;-0.50;99.90
5842;DHT22;2947;52.276;9.946;2023-03-12T05:51:04;-0.70;99.90
5842;DHT22;2947;52.276;9.946;2023-03-12T05:53:30;0.10;99.90
5842;DHT22;2947;52.276;9.946;2023-03-12T05:56:02;-0.70;99.90
5842;DHT22;2947;52.276;9.946;2023-03-12T05:58:29;-0.70;99.90
5842;DHT22;2947;52.276;9.946;2023-03-12T06:00:55;-0.70;99.90
5842;DHT22;2947;52.276;9.946;2023-03-12T06:03:20;-0.70;99.90
5842;DHT22;2947;52.276;9.946;2023-03-12T06:05:46;-0.70;99.90
5842;DHT22;2947;52.276;9.946;2023-03-12T06:08:12;-0.60;99.90
5842;DHT22;2947;52.276;9.946;2023-03-12T06:10:38;-0.60;99.90
5842;DHT22;2947;52.276;9.946;2023-03-12T06:13:04;0.30;99.90
5842;DHT22;2947;52.276;9.946;2023-03-12T06:15:30;-0.50;99.90
5842;DHT22;2947;52.276;9.946;2023-03-12T06:17:56;-0.60;99.90
5842;DHT22;2947;52.276;9.946;2023-03-12T06:20:22;0.00;99.90
5842;DHT22;2947;52.276;9.946;2023-03-12T06:22:48;-0.50;11.30
5842;DHT22;2947;52.276;9.946;2023-03-12T06:25:14;-0.40;1.00
5842;DHT22;2947;52.276;9.946;2023-03-12T06:27:40;-0.40;1.00
5842;DHT22;2947;52.276;9.946;2023-03-12T06:30:07;-0.40;99.90
5842;DHT22;2947;52.276;9.946;2023-03-12T06:32:33;-0.40;1.40
5842;DHT22;2947;52.276;9.946;2023-03-12T06:34:59;-0.30;1.00
5842;DHT22;2947;52.276;9.946;2023-03-12T06:37:25;-0.30;1.00
5842;DHT22;2947;52.276;9.946;2023-03-12T06:39:52;-0.20;1.00
5842;DHT22;2947;52.276;9.946;2023-03-12T06:42:18;-0.20;1.00
5842;DHT22;2947;52.276;9.946;2023-03-12T06:44:45;-0.20;1.00
5842;DHT22;2947;52.276;9.946;2023-03-12T06:47:11;0.70;99.90
5842;DHT22;2947;52.276;9.946;2023-03-12T06:49:37;-0.10;99.90
5842;DHT22;2947;52.276;9.946;2023-03-12T06:52:03;0.00;1.00
5842;DHT22;2947;52.276;9.946;2023-03-12T06:54:29;0.00;6.10
5842;DHT22;2947;52.276;9.946;2023-03-12T06:56:55;0.10;1.00
5842;DHT22;2947;52.276;9.946;2023-03-12T06:59:21;0.10;66.90
5842;DHT22;2947;52.276;9.946;2023-03-12T07:01:47;0.20;1.00
5842;DHT22;2947;52.276;9.946;2023-03-12T07:04:13;0.20;1.00
5842;DHT22;2947;52.276;9.946;2023-03-12T07:06:39;0.20;99.90
5842;DHT22;2947;52.276;9.946;2023-03-12T07:09:05;0.20;99.90
5842;DHT22;2947;52.276;9.946;2023-03-12T07:11:31;0.30;99.90
5842;DHT22;2947;52.276;9.946;2023-03-12T07:13:57;0.30;1.00
5842;DHT22;2947;52.276;9.946;2023-03-12T07:16:23;0.40;99.90
5842;DHT22;2947;52.276;9.946;2023-03-12T07:18:48;0.40;99.90
5842;DHT22;2947;52.276;9.946;2023-03-12T07:21:15;0.40;99.90
5842;DHT22;2947;52.276;9.946;2023-03-12T07:23:48;0.50;99.90
5842;DHT22;2947;52.276;9.946;2023-03-12T07:26:14;0.50;1.00
5842;DHT22;2947;52.276;9.946;2023-03-12T07:28:40;0.50;99.90
5842;DHT22;2947;52.276;9.946;2023-03-12T07:31:06;0.60;1.00
5842;DHT22;2947;52.276;9.946;2023-03-12T07:33:33;0.60;99.90
5842;DHT22;2947;52.276;9.946;2023-03-12T07:35:59;0.70;99.90
5842;DHT22;2947;52.276;9.946;2023-03-12T07:38:25;0.80;1.00
5842;DHT22;2947;52.276;9.946;2023-03-12T07:40:54;0.80;99.90
5842;DHT22;2947;52.276;9.946;2023-03-12T07:43:21;0.90;99.90
5842;DHT22;2947;52.276;9.946;2023-03-12T07:45:47;1.00;1.00
5842;DHT22;2947;52.276;9.946;2023-03-12T07:48:13;1.00;1.00
5842;DHT22;2947;52.276;9.946;2023-03-12T07:50:39;1.10;99.90
5842;DHT22;2947;52.276;9.946;2023-03-12T07:53:05;1.20;1.00
5842;DHT22;2947;52.276;9.946;2023-03-12T07:55:32;1.30;24.60
5842;DHT22;2947;52.276;9.946;2023-03-12T07:57:58;1.30;1.00
5842;DHT22;2947;52.276;9.946;2023-03-12T08:00:26;1.40;99.90
5842;DHT22;2947;52.276;9.946;2023-03-12T08:02:52;1.50;99.90
5842;DHT22;2947;52.276;9.946;2023-03-12T08:05:18;1.50;5.60
5842;DHT22;2947;52.276;9.946;2023-03-12T08:07:45;1.60;26.20
5842;DHT22;2947;52.276;9.946;2023-03-12T08:10:10;1.80;1.00
5842;DHT22;2947;52.276;9.946;2023-03-12T08:12:36;1.80;1.00
5842;DHT22;2947;52.276;9.946;2023-03-12T08:15:05;1.80;99.90
5842;DHT22;2947;52.276;9.946;2023-03-12T08:17:33;1.90;99.90
5842;DHT22;2947;52.276;9.946;2023-03-12T08:19:59;1.50;99.90
5842;DHT22;2947;52.276;9.946;2023-03-12T08:22:24;2.00;99.90
5842;DHT22;2947;52.276;9.946;2023-03-12T08:24:51;2.10;99.90
5842;DHT22;2947;52.276;9.946;2023-03-12T08:27:17;2.10;99.90
5842;DHT22;2947;52.276;9.946;2023-03-12T08:29:43;2.20;91.00
5842;DHT22;2947;52.276;9.946;2023-03-12T08:32:09;2.20;1.00
5842;DHT22;2947;52.276;9.946;2023-03-12T08:34:35;2.30;1.00
5842;DHT22;2947;52.276;9.946;2023-03-12T08:37:02;2.30;1.00
5842;DHT22;2947;52.276;9.946;2023-03-12T08:39:28;2.40;1.00
5842;DHT22;2947;52.276;9.946;2023-03-12T08:41:54;2.40;1.00
5842;DHT22;2947;52.276;9.946;2023-03-12T08:44:22;2.40;1.00
5842;DHT22;2947;52.276;9.946;2023-03-12T08:46:49;2.50;99.90
5842;DHT22;2947;52.276;9.946;2023-03-12T08:49:15;2.50;99.90
5842;DHT22;2947;52.276;9.946;2023-03-12T08:51:41;2.50;99.90
5842;DHT22;2947;52.276;9.946;2023-03-12T08:54:07;2.60;99.90
5842;DHT22;2947;52.276;9.946;2023-03-12T08:56:33;2.60;99.90
5842;DHT22;2947;52.276;9.946;2023-03-12T08:59:01;2.60;99.90
5842;DHT22;2947;52.276;9.946;2023-03-12T09:01:27;2.60;99.90
5842;DHT22;2947;52.276;9.946;2023-03-12T09:03:53;2.70;99.90
5842;DHT22;2947;52.276;9.946;2023-03-12T09:06:19;2.70;99.90
5842;DHT22;2947;52.276;9.946;2023-03-12T09:08:46;2.80;99.90
5842;DHT22;2947;52.276;9.946;2023-03-12T09:11:14;2.80;99.90
5842;DHT22;2947;52.276;9.946;2023-03-12T09:13:41;2.90;99.90
5842;DHT22;2947;52.276;9.946;2023-03-12T09:16:07;3.00;99.90
5842;DHT22;2947;52.276;9.946;2023-03-12T09:18:34;3.00;99.90
5842;DHT22;2947;52.276;9.946;2023-03-12T09:21:00;3.00;99.90
5842;DHT22;2947;52.276;9.946;2023-03-12T09:23:27;3.10;99.90
5842;DHT22;2947;52.276;9.946;2023-03-12T09:25:53;3.00;99.90
5842;DHT22;2947;52.276;9.946;2023-03-12T09:28:19;3.10;99.90
5842;DHT22;2947;52.276;9.946;2023-03-12T09:30:46;3.10;99.90
5842;DHT22;2947;52.276;9.946;2023-03-12T09:33:12;3.20;99.90
5842;DHT22;2947;52.276;9.946;2023-03-12T09:35:40;3.20;99.90
5842;DHT22;2947;52.276;9.946;2023-03-12T09:38:06;3.20;50.60
5842;DHT22;2947;52.276;9.946;2023-03-12T09:40:35;3.20;90.80
5842;DHT22;2947;52.276;9.946;2023-03-12T09:43:12;3.30;99.90
5842;DHT22;2947;52.276;9.946;2023-03-12T09:45:44;3.40;99.90
5842;DHT22;2947;52.276;9.946;2023-03-12T09:48:18;3.40;99.90
5842;DHT22;2947;52.276;9.946;2023-03-12T09:51:17;3.50;99.90
5842;DHT22;2947;52.276;9.946;2023-03-12T09:53:51;3.50;99.90
5842;DHT22;2947;52.276;9.946;2023-03-12T09:56:20;3.60;99.90
5842;DHT22;2947;52.276;9.946;2023-03-12T09:58:47;3.60;1.00
5842;DHT22;2947;52.276;9.946;2023-03-12T10:04:29;3.70;1.00
5842;DHT22;2947;52.276;9.946;2023-03-12T10:07:31;3.80;1.00
5842;DHT22;2947;52.276;9.946;2023-03-12T10:10:44;3.80;1.00
5842;DHT22;2947;52.276;9.946;2023-03-12T10:19:29;4.00;1.00
5842;DHT22;2947;52.276;9.946;2023-03-12T10:22:30;4.10;1.00
5842;DHT22;2947;52.276;9.946;2023-03-12T10:27:45;4.00;1.00
5842;DHT22;2947;52.276;9.946;2023-03-12T10:30:21;4.10;1.00
5842;DHT22;2947;52.276;9.946;2023-03-12T10:32:58;4.00;1.00
5842;DHT22;2947;52.276;9.946;2023-03-12T10:35:27;4.10;1.00
5842;DHT22;2947;52.276;9.946;2023-03-12T10:38:01;4.10;1.00
5842;DHT22;2947;52.276;9.946;2023-03-12T10:40:35;4.10;1.00
5842;DHT22;2947;52.276;9.946;2023-03-12T10:43:03;4.00;1.00
5842;DHT22;2947;52.276;9.946;2023-03-12T10:54:39;3.60;1.00
5842;DHT22;2947;52.276;9.946;2023-03-12T10:57:06;3.50;67.40
5842;DHT22;2947;52.276;9.946;2023-03-12T10:59:38;3.50;99.90
5842;DHT22;2947;52.276;9.946;2023-03-12T11:02:31;3.40;99.90
5842;DHT22;2947;52.276;9.946;2023-03-12T11:05:28;3.40;99.90
5842;DHT22;2947;52.276;9.946;2023-03-12T11:08:02;3.40;99.90
5842;DHT22;2947;52.276;9.946;2023-03-12T11:13:03;3.30;1.00
5842;DHT22;2947;52.276;9.946;2023-03-12T11:15:38;4.40;42.90
5842;DHT22;2947;52.276;9.946;2023-03-12T11:18:33;3.40;99.90
5842;DHT22;2947;52.276;9.946;2023-03-12T11:23:36;3.30;1.00
5842;DHT22;2947;52.276;9.946;2023-03-12T11:26:27;3.30;18.30
5842;DHT22;2947;52.276;9.946;2023-03-12T11:29:04;3.30;1.00
5842;DHT22;2947;52.276;9.946;2023-03-12T11:31:40;3.20;99.90
5842;DHT22;2947;52.276;9.946;2023-03-12T11:34:37;3.30;99.90
5842;DHT22;2947;52.276;9.946;2023-03-12T11:40:16;3.20;99.90
5842;DHT22;2947;52.276;9.946;2023-03-12T11:45:59;3.10;99.90
5842;DHT22;2947;52.276;9.946;2023-03-12T11:57:34;3.30;99.90
5842;DHT22;2947;52.276;9.946;2023-03-12T12:00:17;3.20;99.90
5842;DHT22;2947;52.276;9.946;2023-03-12T12:09:06;3.20;99.90
5842;DHT22;2947;52.276;9.946;2023-03-12T12:12:05;3.20;99.90
5842;DHT22;2947;52.276;9.946;2023-03-12T12:17:33;3.20;1.00
5842;DHT22;2947;52.276;9.946;2023-03-12T12:20:27;3.20;62.60
5842;DHT22;2947;52.276;9.946;2023-03-12T12:25:51;3.20;99.90
5842;DHT22;2947;52.276;9.946;2023-03-12T12:28:44;3.20;99.90
5842;DHT22;2947;52.276;9.946;2023-03-12T12:37:40;3.10;1.00
5842;DHT22;2947;52.276;9.946;2023-03-12T12:40:39;3.10;1.00
5842;DHT22;2947;52.276;9.946;2023-03-12T12:46:21;3.10;1.00
5842;DHT22;2947;52.276;9.946;2023-03-12T12:48:56;3.00;1.00
5842;DHT22;2947;52.276;9.946;2023-03-12T12:51:29;3.10;1.00
5842;DHT22;2947;52.276;9.946;2023-03-12T13:03:09;3.20;1.00
5842;DHT22;2947;52.276;9.946;2023-03-12T13:13:47;3.20;70.50
5842;DHT22;2947;52.276;9.946;2023-03-12T13:16:43;3.10;97.50
5842;DHT22;2947;52.276;9.946;2023-03-12T13:21:45;3.10;99.90
5842;DHT22;2947;52.276;9.946;2023-03-12T13:24:39;3.10;99.90
5842;DHT22;2947;52.276;9.946;2023-03-12T13:27:29;3.10;99.90
5842;DHT22;2947;52.276;9.946;2023-03-12T13:29:57;3.10;99.90
5842;DHT22;2947;52.276;9.946;2023-03-12T13:40:51;3.20;99.90
5842;DHT22;2947;52.276;9.946;2023-03-12T13:43:40;4.00;99.90
5842;DHT22;2947;52.276;9.946;2023-03-12T13:48:48;3.20;99.90
5842;DHT22;2947;52.276;9.946;2023-03-12T13:51:23;3.30;99.90
5842;DHT22;2947;52.276;9.946;2023-03-12T13:53:53;3.30;99.90
5842;DHT22;2947;52.276;9.946;2023-03-12T13:56:29;3.30;99.90
5842;DHT22;2947;52.276;9.946;2023-03-12T14:01:56;3.40;99.90
5842;DHT22;2947;52.276;9.946;2023-03-12T14:04:35;3.40;99.90
5842;DHT22;2947;52.276;9.946;2023-03-12T14:07:06;3.40;99.90
5842;DHT22;2947;52.276;9.946;2023-03-12T14:12:45;3.40;99.90
5842;DHT22;2947;52.276;9.946;2023-03-12T14:15:28;3.40;99.90
5842;DHT22;2947;52.276;9.946;2023-03-12T14:18:08;3.40;99.90
5842;DHT22;2947;52.276;9.946;2023-03-12T14:20:38;3.40;99.90
5842;DHT22;2947;52.276;9.946;2023-03-12T14:23:08;3.50;99.90
5842;DHT22;2947;52.276;9.946;2023-03-12T14:25:41;3.50;99.90
5842;DHT22;2947;52.276;9.946;2023-03-12T14:28:19;3.50;99.90
5842;DHT22;2947;52.276;9.946;2023-03-12T14:31:04;3.50;99.90
5842;DHT22;2947;52.276;9.946;2023-03-12T14:33:53;3.50;99.90
5842;DHT22;2947;52.276;9.946;2023-03-12T14:36:38;3.50;99.90
5842;DHT22;2947;52.276;9.946;2023-03-12T14:39:27;3.50;99.90
5842;DHT22;2947;52.276;9.946;2023-03-12T14:42:02;3.50;99.90
5842;DHT22;2947;52.276;9.946;2023-03-12T14:44:30;3.60;99.90
5842;DHT22;2947;52.276;9.946;2023-03-12T14:47:06;3.60;99.90
5842;DHT22;2947;52.276;9.946;2023-03-12T14:49:44;4.50;99.90
5842;DHT22;2947;52.276;9.946;2023-03-12T14:52:22;3.70;99.90
5842;DHT22;2947;52.276;9.946;2023-03-12T14:54:58;3.70;99.90
5842;DHT22;2947;52.276;9.946;2023-03-12T14:57:25;3.70;99.90
5842;DHT22;2947;52.276;9.946;2023-03-12T14:59:53;3.70;99.90
5842;DHT22;2947;52.276;9.946;2023-03-12T15:02:21;3.70;99.90
5842;DHT22;2947;52.276;9.946;2023-03-12T15:04:49;3.80;99.90
5842;DHT22;2947;52.276;9.946;2023-03-12T15:07:22;3.80;99.90
5842;DHT22;2947;52.276;9.946;2023-03-12T15:09:51;3.90;99.90
5842;DHT22;2947;52.276;9.946;2023-03-12T15:12:23;3.90;99.90
5842;DHT22;2947;52.276;9.946;2023-03-12T15:15:09;3.90;99.90
5842;DHT22;2947;52.276;9.946;2023-03-12T15:17:44;4.00;99.90
5842;DHT22;2947;52.276;9.946;2023-03-12T15:20:14;4.00;99.90
5842;DHT22;2947;52.276;9.946;2023-03-12T15:22:40;4.00;99.90
5842;DHT22;2947;52.276;9.946;2023-03-12T15:25:24;4.00;99.90
5842;DHT22;2947;52.276;9.946;2023-03-12T15:31:13;4.10;99.90
5842;DHT22;2947;52.276;9.946;2023-03-12T15:33:44;4.20;99.90
5842;DHT22;2947;52.276;9.946;2023-03-12T15:38:54;4.20;99.90
5842;DHT22;2947;52.276;9.946;2023-03-12T15:41:44;4.20;99.90
5842;DHT22;2947;52.276;9.946;2023-03-12T15:44:24;4.30;99.90
5842;DHT22;2947;52.276;9.946;2023-03-12T15:46:55;4.20;99.90
5842;DHT22;2947;52.276;9.946;2023-03-12T15:49:25;4.30;99.90
5842;DHT22;2947;52.276;9.946;2023-03-12T15:51:59;4.30;99.90
5842;DHT22;2947;52.276;9.946;2023-03-12T15:57:48;4.60;99.90
5842;DHT22;2947;52.276;9.946;2023-03-12T16:03:01;4.40;99.90
5842;DHT22;2947;52.276;9.946;2023-03-12T16:05:32;4.40;99.90
5842;DHT22;2947;52.276;9.946;2023-03-12T16:08:21;4.50;99.90
5842;DHT22;2947;52.276;9.946;2023-03-12T16:10:52;4.50;99.90
5842;DHT22;2947;52.276;9.946;2023-03-12T16:13:22;4.50;99.90
5842;DHT22;2947;52.276;9.946;2023-03-12T16:15:53;4.50;99.90
5842;DHT22;2947;52.276;9.946;2023-03-12T16:18:20;4.60;99.90
5842;DHT22;2947;52.276;9.946;2023-03-12T16:20:49;4.60;99.90
5842;DHT22;2947;52.276;9.946;2023-03-12T16:23:16;4.70;99.90
5842;DHT22;2947;52.276;9.946;2023-03-12T16:25:46;4.70;99.90
5842;DHT22;2947;52.276;9.946;2023-03-12T16:28:16;4.70;99.90
5842;DHT22;2947;52.276;9.946;2023-03-12T16:30:43;4.80;99.90
5842;DHT22;2947;52.276;9.946;2023-03-12T16:33:15;4.80;99.90
5842;DHT22;2947;52.276;9.946;2023-03-12T16:35:42;4.80;99.90
5842;DHT22;2947;52.276;9.946;2023-03-12T16:38:08;4.90;99.90
5842;DHT22;2947;52.276;9.946;2023-03-12T16:40:39;4.90;99.90
5842;DHT22;2947;52.276;9.946;2023-03-12T16:43:21;5.00;99.90
5842;DHT22;2947;52.276;9.946;2023-03-12T16:45:50;5.00;99.90
5842;DHT22;2947;52.276;9.946;2023-03-12T16:48:18;5.00;99.90
5842;DHT22;2947;52.276;9.946;2023-03-12T16:50:51;5.00;99.90
5842;DHT22;2947;52.276;9.946;2023-03-12T16:53:19;5.00;99.90
5842;DHT22;2947;52.276;9.946;2023-03-12T16:55:59;5.10;99.90
5842;DHT22;2947;52.276;9.946;2023-03-12T16:58:25;5.10;99.90
5842;DHT22;2947;52.276;9.946;2023-03-12T17:00:52;5.10;99.90
5842;DHT22;2947;52.276;9.946;2023-03-12T17:03:34;5.20;99.90
5842;DHT22;2947;52.276;9.946;2023-03-12T17:06:03;5.10;99.90
5842;DHT22;2947;52.276;9.946;2023-03-12T17:08:30;5.10;99.90
5842;DHT22;2947;52.276;9.946;2023-03-12T17:10:56;5.20;99.90
5842;DHT22;2947;52.276;9.946;2023-03-12T17:13:27;5.20;99.90
5842;DHT22;2947;52.276;9.946;2023-03-12T17:15:54;5.20;99.90
5842;DHT22;2947;52.276;9.946;2023-03-12T17:18:20;5.20;99.90
5842;DHT22;2947;52.276;9.946;2023-03-12T17:20:48;5.30;99.90
5842;DHT22;2947;52.276;9.946;2023-03-12T17:23:16;5.30;99.90
5842;DHT22;2947;52.276;9.946;2023-03-12T17:25:43;5.30;99.90
5842;DHT22;2947;52.276;9.946;2023-03-12T17:28:09;5.30;99.90
5842;DHT22;2947;52.276;9.946;2023-03-12T17:30:36;5.30;99.90
5842;DHT22;2947;52.276;9.946;2023-03-12T17:33:08;5.40;99.90
5842;DHT22;2947;52.276;9.946;2023-03-12T17:35:36;5.40;99.90
5842;DHT22;2947;52.276;9.946;2023-03-12T17:38:02;5.40;99.90
5842;DHT22;2947;52.276;9.946;2023-03-12T17:40:28;5.50;99.90
5842;DHT22;2947;52.276;9.946;2023-03-12T17:42:54;5.50;99.90
5842;DHT22;2947;52.276;9.946;2023-03-12T17:45:20;5.70;99.90
5842;DHT22;2947;52.276;9.946;2023-03-12T17:47:47;5.60;99.90
5842;DHT22;2947;52.276;9.946;2023-03-12T17:50:13;5.60;99.90
5842;DHT22;2947;52.276;9.946;2023-03-12T17:52:39;5.60;99.90
5842;DHT22;2947;52.276;9.946;2023-03-12T17:55:06;5.70;99.90
5842;DHT22;2947;52.276;9.946;2023-03-12T17:57:32;5.70;99.90
5842;DHT22;2947;52.276;9.946;2023-03-12T17:59:58;5.70;99.90
5842;DHT22;2947;52.276;9.946;2023-03-12T18:02:24;5.70;99.90
5842;DHT22;2947;52.276;9.946;2023-03-12T18:04:49;5.70;99.90
5842;DHT22;2947;52.276;9.946;2023-03-12T18:07:15;5.70;99.90
5842;DHT22;2947;52.276;9.946;2023-03-12T18:09:41;5.80;99.90
5842;DHT22;2947;52.276;9.946;2023-03-12T18:12:07;5.80;99.90
5842;DHT22;2947;52.276;9.946;2023-03-12T18:14:33;5.90;99.90
5842;DHT22;2947;52.276;9.946;2023-03-12T18:16:59;5.90;99.90
5842;DHT22;2947;52.276;9.946;2023-03-12T18:19:25;5.90;99.90
5842;DHT22;2947;52.276;9.946;2023-03-12T18:21:55;6.00;99.90
5842;DHT22;2947;52.276;9.946;2023-03-12T18:24:20;6.10;99.90
5842;DHT22;2947;52.276;9.946;2023-03-12T18:26:46;6.00;99.90
5842;DHT22;2947;52.276;9.946;2023-03-12T18:29:14;6.10;99.90